createdAt,value
2022-08-25T00:00:14.488Z,92.40
2022-08-25T00:02:54.866Z,98.30
2022-08-25T00:05:27.700Z,90.75
2022-08-25T00:07:57.390Z,95.85
2022-08-25T00:10:25.206Z,79.97
2022-08-25T00:12:52.756Z,68.75
2022-08-25T00:15:24.088Z,80.55
2022-08-25T00:17:52.979Z,75.85
2022-08-25T00:20:20.551Z,70.63
2022-08-25T00:22:49.022Z,76.72
2022-08-25T00:25:16.957Z,90.75
2022-08-25T00:27:44.487Z,80.82
2022-08-25T00:30:15.969Z,68.68
2022-08-25T00:32:55.293Z,71.32
2022-08-25T00:35:26.664Z,67.97
2022-08-25T00:37:54.238Z,65.97
2022-08-25T00:40:23.104Z,58.15
2022-08-25T00:42:50.535Z,62.95
2022-08-25T00:45:18.963Z,56.25
2022-08-25T00:47:46.902Z,43.10
2022-08-25T00:50:14.564Z,37.40
2022-08-25T00:52:50.284Z,37.97
2022-08-25T00:55:23.638Z,35.15
2022-08-25T00:57:56.913Z,28.92
2022-08-25T01:00:32.478Z,26.65
2022-08-25T01:03:00.157Z,19.38
2022-08-25T01:05:29.127Z,17.02
2022-08-25T01:07:58.731Z,17.65
2022-08-25T01:10:28.363Z,14.07
2022-08-25T01:13:05.826Z,13.45
2022-08-25T01:15:34.990Z,13.43
2022-08-25T01:18:05.518Z,13.93
2022-08-25T01:20:34.848Z,12.05
2022-08-25T01:23:02.476Z,13.93
2022-08-25T01:26:05.916Z,14.52
2022-08-25T01:28:33.614Z,9.88
2022-08-25T01:31:01.221Z,14.82
2022-08-25T01:33:28.691Z,13.80
2022-08-25T01:35:56.481Z,9.93
2022-08-25T01:38:23.871Z,11.55
2022-08-25T01:40:51.460Z,8.55
2022-08-25T01:43:27.140Z,15.63
2022-08-25T01:45:54.735Z,10.93
2022-08-25T01:48:22.260Z,13.13
2022-08-25T01:50:49.761Z,9.32
2022-08-25T01:53:23.033Z,8.07
2022-08-25T01:55:54.127Z,10.73
2022-08-25T01:58:30.662Z,14.35
2022-08-25T02:01:01.734Z,9.27
2022-08-25T02:05:58.408Z,14.60
2022-08-25T02:08:26.264Z,12.00
2022-08-25T02:10:55.869Z,10.50
2022-08-25T02:13:26.899Z,12.18
2022-08-25T02:16:01.197Z,12.07
2022-08-25T02:18:29.376Z,9.70
2022-08-25T02:20:56.937Z,8.77
2022-08-25T02:23:24.425Z,9.05
2022-08-25T02:25:51.847Z,10.90
2022-08-25T02:28:19.513Z,13.05
2022-08-25T02:30:48.200Z,7.95
2022-08-25T02:33:15.951Z,8.43
2022-08-25T02:35:43.422Z,9.18
2022-08-25T02:38:11.002Z,9.07
2022-08-25T02:40:39.023Z,16.45
2022-08-25T02:43:06.600Z,13.45
2022-08-25T02:45:34.018Z,8.88
2022-08-25T02:48:01.562Z,9.07
2022-08-25T02:50:29.742Z,12.73
2022-08-25T02:52:57.311Z,14.48
2022-08-25T02:55:24.820Z,13.50
2022-08-25T02:57:52.313Z,14.13
2022-08-25T03:00:20.135Z,10.75
2022-08-25T03:02:47.625Z,14.00
2022-08-25T03:05:16.361Z,14.82
2022-08-25T03:07:43.922Z,14.70
2022-08-25T03:10:16.710Z,11.10
2022-08-25T03:12:44.343Z,12.60
2022-08-25T03:15:16.828Z,15.77
2022-08-25T03:17:46.243Z,12.73
2022-08-25T03:20:14.518Z,10.82
2022-08-25T03:22:42.845Z,16.58
2022-08-25T03:25:29.198Z,9.93
2022-08-25T03:27:56.671Z,14.68
2022-08-25T03:30:24.483Z,11.48
2022-08-25T03:32:52.293Z,12.57
2022-08-25T03:35:20.172Z,14.82
2022-08-25T03:37:47.701Z,10.80
2022-08-25T03:40:19.907Z,11.88
2022-08-25T03:42:47.644Z,11.60
2022-08-25T03:45:17.020Z,15.32
2022-08-25T03:47:47.743Z,13.38
2022-08-25T03:50:16.371Z,11.13
2022-08-25T03:52:44.352Z,11.63
2022-08-25T03:55:14.599Z,15.52
2022-08-25T03:57:42.415Z,14.00
2022-08-25T04:00:12.406Z,12.70
2022-08-25T04:02:41.184Z,11.77
2022-08-25T04:05:09.685Z,15.63
2022-08-25T04:07:37.601Z,12.15
2022-08-25T04:10:07.680Z,8.90
2022-08-25T04:12:35.394Z,10.70
2022-08-25T04:15:07.662Z,15.88
2022-08-25T04:17:39.134Z,10.93
2022-08-25T04:20:09.115Z,16.95
2022-08-25T04:22:38.363Z,14.57
2022-08-25T04:25:07.345Z,16.95
2022-08-25T04:27:35.808Z,13.73
2022-08-25T04:30:04.517Z,15.13
2022-08-25T04:32:32.319Z,15.85
2022-08-25T04:35:00.139Z,16.63
2022-08-25T04:37:27.664Z,15.88
2022-08-25T04:39:55.093Z,16.50
2022-08-25T04:42:23.164Z,8.50
2022-08-25T04:44:50.533Z,13.73
2022-08-25T04:47:18.041Z,10.35
2022-08-25T04:49:45.489Z,13.77
2022-08-25T04:52:14.351Z,13.70
2022-08-25T04:54:43.026Z,13.25
2022-08-25T04:57:10.462Z,9.15
2022-08-25T04:59:37.891Z,23.42
2022-08-25T05:02:06.847Z,13.75
2022-08-25T05:04:36.394Z,13.13
2022-08-25T05:07:04.874Z,14.13
2022-08-25T05:09:33.080Z,13.18
2022-08-25T05:35:49.339Z,11.10
2022-08-25T05:54:52.293Z,13.63
2022-08-25T05:57:19.848Z,17.52
2022-08-25T05:59:47.396Z,15.30
2022-08-25T06:02:33.553Z,20.08
2022-08-25T06:05:00.962Z,25.92
2022-08-25T06:07:28.571Z,15.95
2022-08-25T06:09:56.168Z,18.98
2022-08-25T06:12:23.654Z,20.30
2022-08-25T06:14:51.492Z,17.63
2022-08-25T06:17:18.913Z,16.05
2022-08-25T06:19:46.317Z,18.63
2022-08-25T06:22:13.757Z,17.70
2022-08-25T06:24:41.421Z,27.05
2022-08-25T06:27:08.880Z,16.63
2022-08-25T06:29:36.318Z,18.63
2022-08-25T06:32:06.141Z,19.13
2022-08-25T06:34:33.835Z,17.55
2022-08-25T06:37:01.705Z,18.23
2022-08-25T06:39:29.167Z,14.30
2022-08-25T06:41:57.955Z,14.93
2022-08-25T06:44:27.645Z,20.35
2022-08-25T06:46:55.722Z,12.10
2022-08-25T06:49:27.832Z,10.88
2022-08-25T06:51:55.594Z,18.77
2022-08-25T06:54:23.042Z,13.30
2022-08-25T06:56:51.664Z,12.10
2022-08-25T06:59:19.293Z,16.55
2022-08-25T07:01:47.047Z,14.32
2022-08-25T07:04:17.280Z,14.63
2022-08-25T07:06:45.038Z,19.60
2022-08-25T07:09:13.394Z,15.45
2022-08-25T07:11:42.139Z,18.10
2022-08-25T07:14:11.990Z,15.93
2022-08-25T07:16:42.428Z,13.40
2022-08-25T07:19:12.021Z,16.48
2022-08-25T07:21:45.930Z,17.17
2022-08-25T07:24:14.953Z,19.08
2022-08-25T07:26:43.627Z,12.55
2022-08-25T07:29:17.941Z,13.38
2022-08-25T07:31:46.075Z,11.98
2022-08-25T07:34:40.130Z,10.00
2022-08-25T07:37:23.773Z,10.35
2022-08-25T07:40:03.324Z,8.80
2022-08-25T07:42:32.283Z,9.85
2022-08-25T07:44:59.872Z,10.90
2022-08-25T07:47:27.395Z,8.30
2022-08-25T07:49:54.994Z,10.43
2022-08-25T07:52:24.735Z,13.23
2022-08-25T07:54:54.419Z,13.65
2022-08-25T07:57:24.735Z,9.38
2022-08-25T07:59:52.923Z,13.07
2022-08-25T08:02:20.678Z,15.27
2022-08-25T08:04:53.949Z,14.43
2022-08-25T08:07:42.002Z,6.63
2022-08-25T08:10:47.943Z,13.07
2022-08-25T08:13:02.849Z,12.85
2022-08-25T08:15:30.502Z,8.80
2022-08-25T08:17:59.789Z,10.48
2022-08-25T08:20:29.101Z,13.82
2022-08-25T08:22:57.254Z,7.85
2022-08-25T08:25:27.366Z,9.60
2022-08-25T08:27:56.052Z,10.93
2022-08-25T08:30:26.365Z,11.07
2022-08-25T08:33:19.587Z,8.00
2022-08-25T08:35:43.492Z,6.20
2022-08-25T08:38:17.320Z,8.30
2022-08-25T08:41:23.006Z,8.85
2022-08-25T08:44:01.485Z,7.00
2022-08-25T08:46:39.636Z,9.70
2022-08-25T08:49:23.144Z,13.57
2022-08-25T08:52:01.718Z,9.45
2022-08-25T08:54:36.170Z,10.93
2022-08-25T08:57:10.702Z,11.05
2022-08-25T08:59:55.674Z,5.63
2022-08-25T09:02:55.288Z,6.78
2022-08-25T09:05:27.789Z,6.93
2022-08-25T09:07:59.169Z,9.63
2022-08-25T09:10:35.763Z,8.20
2022-08-25T09:13:15.603Z,7.82
2022-08-25T09:16:20.657Z,8.05
2022-08-25T09:19:08.617Z,11.35
2022-08-25T09:21:45.491Z,10.07
2022-08-25T09:24:47.568Z,9.40
2022-08-25T09:27:44.909Z,8.73
2022-08-25T09:30:16.520Z,8.25
2022-08-25T09:32:52.350Z,7.35
2022-08-25T09:35:30.639Z,6.78
2022-08-25T09:38:02.961Z,7.80
2022-08-25T09:40:33.152Z,10.13
2022-08-25T09:43:18.131Z,12.18
2022-08-25T09:45:58.801Z,11.82
2022-08-25T09:51:10.556Z,8.93
2022-08-25T09:54:03.366Z,11.38
2022-08-25T09:56:50.396Z,18.15
2022-08-25T09:59:38.285Z,14.07
2022-08-25T10:02:29.272Z,11.02
2022-08-25T10:04:57.458Z,24.85
2022-08-25T10:07:29.448Z,34.13
2022-08-25T10:10:01.659Z,13.13
2022-08-25T10:12:42.674Z,7.05
2022-08-25T10:15:16.376Z,9.23
2022-08-25T10:18:20.315Z,12.90
2022-08-25T10:21:07.647Z,8.00
2022-08-25T10:23:44.818Z,7.00
2022-08-25T10:26:29.678Z,17.33
2022-08-25T10:29:06.968Z,16.15
2022-08-25T10:31:44.076Z,10.18
2022-08-25T10:34:18.056Z,8.63
2022-08-25T10:37:11.601Z,12.25
2022-08-25T10:39:55.330Z,18.05
2022-08-25T10:42:47.241Z,14.90
2022-08-25T10:45:41.825Z,9.30
2022-08-25T10:48:31.289Z,13.05
2022-08-25T10:51:18.089Z,12.55
2022-08-25T10:54:15.051Z,9.05
2022-08-25T10:57:01.948Z,9.35
2022-08-25T11:00:00.057Z,8.10
2022-08-25T11:03:02.337Z,10.35
2022-08-25T11:05:40.738Z,8.38
2022-08-25T11:08:21.523Z,10.20
2022-08-25T11:11:13.116Z,9.13
2022-08-25T11:13:48.336Z,13.52
2022-08-25T11:16:28.180Z,15.05
2022-08-25T11:19:05.593Z,10.05
2022-08-25T11:21:59.536Z,6.72
2022-08-25T11:24:36.150Z,6.43
2022-08-25T11:27:10.222Z,19.20
2022-08-25T11:29:44.379Z,8.68
2022-08-25T11:32:12.021Z,11.45
2022-08-25T11:34:43.012Z,18.02
2022-08-25T11:37:28.080Z,6.95
2022-08-25T11:40:13.819Z,12.73
2022-08-25T11:43:00.009Z,11.30
2022-08-25T11:45:54.212Z,13.52
2022-08-25T11:48:46.176Z,7.90
2022-08-25T11:51:45.216Z,7.13
2022-08-25T11:54:29.463Z,14.95
2022-08-25T11:56:56.931Z,4.05
2022-08-25T11:59:50.073Z,5.25
2022-08-25T12:02:32.669Z,12.45
2022-08-25T12:05:00.750Z,10.13
2022-08-25T12:07:52.112Z,5.63
2022-08-25T12:10:23.560Z,9.02
2022-08-25T12:13:04.776Z,8.15
2022-08-25T12:15:56.843Z,4.57
2022-08-25T12:18:27.804Z,6.90
2022-08-25T12:20:55.330Z,7.00
2022-08-25T12:23:34.777Z,7.78
2022-08-25T12:26:11.245Z,9.27
2022-08-25T12:28:56.229Z,9.65
2022-08-25T12:31:33.142Z,7.70
2022-08-25T12:34:31.435Z,13.18
2022-08-25T12:37:06.618Z,8.93
2022-08-25T12:40:07.521Z,6.38
2022-08-25T12:42:39.731Z,8.52
2022-08-25T12:45:24.777Z,9.30
2022-08-25T12:47:54.763Z,9.15
2022-08-25T12:50:33.920Z,6.07
2022-08-25T12:53:15.966Z,15.05
2022-08-25T12:55:56.472Z,10.57
2022-08-25T12:58:43.756Z,8.68
2022-08-25T13:01:32.838Z,5.50
2022-08-25T13:04:09.531Z,7.30
2022-08-25T13:07:03.899Z,9.80
2022-08-25T13:09:50.769Z,3.22
2022-08-25T13:12:49.586Z,5.63
2022-08-25T13:15:47.160Z,6.77
2022-08-25T13:18:27.110Z,5.73
2022-08-25T13:21:11.754Z,6.18
2022-08-25T13:23:41.940Z,4.97
2022-08-25T13:26:17.119Z,5.03
2022-08-25T13:29:00.439Z,14.05
2022-08-25T13:31:30.053Z,8.00
2022-08-25T13:33:59.598Z,4.50
2022-08-25T13:36:54.339Z,3.58
2022-08-25T13:39:52.714Z,5.60
2022-08-25T13:42:16.621Z,7.63
2022-08-25T13:44:52.373Z,6.03
2022-08-25T13:47:45.225Z,16.75
2022-08-25T13:50:21.422Z,6.05
2022-08-25T13:53:04.403Z,5.43
2022-08-25T13:55:38.344Z,11.40
2022-08-25T13:58:24.473Z,5.25
2022-08-25T14:01:01.787Z,10.25
2022-08-25T14:03:49.713Z,8.82
2022-08-25T14:06:17.127Z,9.55
2022-08-25T14:09:03.572Z,10.60
2022-08-25T14:11:41.222Z,12.15
2022-08-25T14:14:12.654Z,12.18
2022-08-25T14:16:49.546Z,8.70
2022-08-25T14:19:20.353Z,6.70
2022-08-25T14:21:49.588Z,7.15
2022-08-25T14:24:18.383Z,6.75
2022-08-25T14:26:53.984Z,4.68
2022-08-25T14:29:22.525Z,9.02
2022-08-25T14:31:52.625Z,4.53
2022-08-25T14:34:24.078Z,8.93
2022-08-25T14:36:52.410Z,8.45
2022-08-25T14:39:19.899Z,10.50
2022-08-25T14:41:52.643Z,6.05
2022-08-25T14:44:21.759Z,11.95
2022-08-25T14:46:55.696Z,4.63
2022-08-25T14:49:33.832Z,9.98
2022-08-25T14:52:13.084Z,6.05
2022-08-25T14:54:40.638Z,7.07
2022-08-25T14:57:08.952Z,5.85
2022-08-25T14:59:36.489Z,8.18
2022-08-25T15:02:14.392Z,9.52
2022-08-25T15:04:42.323Z,8.25
2022-08-25T15:07:35.547Z,9.02
2022-08-25T15:10:03.090Z,9.70
2022-08-25T15:12:46.915Z,10.77
2022-08-25T15:15:15.291Z,8.25
2022-08-25T15:17:45.124Z,6.85
2022-08-25T15:20:12.986Z,6.03
2022-08-25T15:22:43.864Z,4.75
2022-08-25T15:25:11.714Z,14.18
2022-08-25T15:27:39.158Z,7.65
2022-08-25T15:30:07.622Z,4.50
2022-08-25T15:32:35.188Z,21.10
2022-08-25T15:35:02.963Z,9.75
2022-08-25T15:37:32.257Z,4.70
2022-08-25T15:39:59.929Z,10.10
2022-08-25T15:42:27.544Z,5.18
2022-08-25T15:44:56.293Z,8.27
2022-08-25T15:47:24.351Z,6.72
2022-08-25T15:50:11.497Z,5.95
2022-08-25T15:52:46.510Z,4.68
2022-08-25T15:55:15.600Z,10.02
2022-08-25T15:57:43.611Z,8.30
2022-08-25T16:00:13.641Z,11.25
2022-08-25T16:02:45.537Z,12.73
2022-08-25T16:05:16.419Z,8.68
2022-08-25T16:07:46.243Z,7.75
2022-08-25T16:10:19.579Z,13.75
2022-08-25T16:12:47.688Z,20.48
2022-08-25T16:15:16.237Z,14.95
2022-08-25T16:17:45.977Z,14.60
2022-08-25T16:20:17.881Z,10.43
2022-08-25T16:22:45.488Z,10.75
2022-08-25T16:25:13.610Z,13.77
2022-08-25T16:27:41.426Z,23.30
2022-08-25T16:30:17.515Z,20.40
2022-08-25T16:32:46.774Z,33.58
2022-08-25T16:35:14.440Z,30.98
2022-08-25T16:37:41.979Z,56.05
2022-08-25T16:40:13.685Z,39.28
2022-08-25T16:42:42.749Z,36.35
2022-08-25T16:45:10.582Z,42.63
2022-08-25T16:47:38.296Z,22.83
2022-08-25T16:50:10.832Z,50.45
2022-08-25T16:52:58.331Z,17.98
2022-08-25T16:55:29.159Z,82.28
2022-08-25T16:58:08.431Z,50.30
2022-08-25T17:00:41.436Z,33.83
2022-08-25T17:03:11.449Z,34.80
2022-08-25T17:05:43.128Z,37.65
2022-08-25T17:08:29.385Z,31.52
2022-08-25T17:11:14.522Z,25.60
2022-08-25T17:13:46.121Z,28.90
2022-08-25T17:16:14.572Z,33.10
2022-08-25T17:18:43.144Z,24.58
2022-08-25T17:21:24.595Z,30.95
2022-08-25T17:23:53.975Z,16.80
2022-08-25T17:26:27.583Z,19.95
2022-08-25T17:28:57.746Z,20.98
2022-08-25T17:31:28.360Z,22.63
2022-08-25T17:33:57.945Z,25.75
2022-08-25T17:36:27.157Z,28.77
2022-08-25T17:38:56.828Z,31.27
2022-08-25T17:41:25.041Z,23.98
2022-08-25T17:43:52.578Z,23.88
2022-08-25T17:46:21.375Z,30.52
2022-08-25T17:48:48.963Z,25.73
2022-08-25T17:51:16.515Z,24.00
2022-08-25T17:53:45.112Z,30.52
2022-08-25T17:56:17.472Z,43.28
2022-08-25T17:58:47.375Z,32.65
2022-08-25T18:01:17.920Z,42.53
2022-08-25T18:03:46.210Z,37.85
2022-08-25T18:06:15.197Z,31.92
2022-08-25T18:08:53.638Z,26.73
2022-08-25T18:11:23.726Z,36.63
2022-08-25T18:13:53.907Z,40.20
2022-08-25T18:16:22.911Z,44.72
2022-08-25T18:18:51.470Z,43.63
2022-08-25T18:21:22.473Z,43.28
2022-08-25T18:23:50.255Z,48.22
2022-08-25T18:26:21.921Z,29.85
2022-08-25T18:28:52.865Z,45.88
2022-08-25T18:31:20.383Z,40.35
2022-08-25T18:33:51.126Z,42.30
2022-08-25T18:36:20.999Z,42.25
2022-08-25T18:39:07.621Z,34.88
2022-08-25T18:41:40.075Z,38.80
2022-08-25T18:44:08.848Z,40.25
2022-08-25T18:46:39.925Z,38.50
2022-08-25T18:49:08.527Z,41.08
2022-08-25T18:51:36.574Z,41.67
2022-08-25T18:54:04.765Z,48.63
2022-08-25T18:56:33.436Z,57.03
2022-08-25T18:59:00.996Z,44.00
2022-08-25T19:01:28.900Z,44.78
2022-08-25T19:03:57.288Z,45.45
2022-08-25T19:06:24.750Z,37.28
2022-08-25T19:08:52.575Z,40.60
2022-08-25T19:11:22.465Z,45.45
2022-08-25T19:13:51.226Z,42.57
2022-08-25T19:16:33.721Z,32.78
2022-08-25T19:19:03.660Z,39.97
2022-08-25T19:21:34.645Z,40.67
2022-08-25T19:26:31.024Z,44.97
2022-08-25T19:28:58.600Z,58.42
2022-08-25T19:31:27.755Z,56.40
2022-08-25T19:34:01.667Z,59.80
2022-08-25T19:36:30.315Z,63.25
2022-08-25T19:39:01.308Z,64.38
2022-08-25T19:43:57.796Z,66.97
2022-08-25T19:46:35.313Z,63.05
2022-08-25T19:49:16.727Z,71.22
2022-08-25T19:51:50.549Z,65.85
2022-08-25T19:54:24.585Z,71.55
2022-08-25T19:56:55.332Z,69.25
2022-08-25T19:59:40.599Z,71.32
2022-08-25T20:02:15.399Z,49.17
2022-08-25T20:04:49.663Z,50.38
2022-08-25T20:07:20.271Z,55.60
2022-08-25T20:09:48.366Z,56.67
2022-08-25T20:12:16.318Z,41.40
2022-08-25T20:14:47.828Z,47.55
2022-08-25T20:17:24.642Z,42.95
2022-08-25T20:20:00.928Z,48.05
2022-08-25T20:22:32.513Z,55.30
2022-08-25T20:25:13.357Z,57.92
2022-08-25T20:27:45.302Z,37.58
2022-08-25T20:30:18.850Z,40.53
2022-08-25T20:32:46.581Z,28.20
2022-08-25T20:35:14.656Z,40.78
2022-08-25T20:37:44.598Z,36.53
2022-08-25T20:40:18.808Z,31.83
2022-08-25T20:42:53.178Z,39.30
2022-08-25T20:45:24.346Z,36.15
2022-08-25T20:47:52.122Z,36.83
2022-08-25T20:50:20.565Z,28.30
2022-08-25T20:52:48.527Z,31.40
2022-08-25T20:55:18.957Z,39.63
2022-08-25T20:57:47.004Z,32.65
2022-08-25T21:00:15.960Z,31.02
2022-08-25T21:02:46.322Z,37.10
2022-08-25T21:05:14.284Z,30.80
2022-08-25T21:07:42.028Z,27.95
2022-08-25T21:10:14.226Z,28.73
2022-08-25T21:12:42.986Z,28.02
2022-08-25T21:15:13.724Z,24.88
2022-08-25T21:17:50.010Z,31.85
2022-08-25T21:20:18.222Z,27.13
2022-08-25T21:22:45.770Z,29.85
2022-08-25T21:25:13.857Z,31.35
2022-08-25T21:27:41.382Z,30.88
2022-08-25T21:30:11.879Z,25.00
2022-08-25T21:32:39.409Z,25.05
2022-08-25T21:35:07.775Z,30.63
2022-08-25T21:37:35.517Z,25.88
2022-08-25T21:40:03.483Z,28.45
2022-08-25T21:42:34.602Z,30.63
2022-08-25T21:45:02.783Z,28.10
2022-08-25T21:47:30.337Z,27.20
2022-08-25T21:49:58.000Z,27.95
2022-08-25T21:52:25.449Z,25.70
2022-08-25T21:54:52.863Z,27.40
2022-08-25T21:57:23.653Z,24.77
2022-08-25T21:59:51.791Z,23.13
2022-08-25T22:02:22.608Z,20.45
2022-08-25T22:07:24.469Z,25.55
2022-08-25T22:12:20.215Z,26.90
2022-08-25T22:14:47.777Z,28.90
2022-08-25T22:17:16.552Z,23.25
2022-08-25T22:19:45.857Z,28.95
2022-08-25T22:22:13.947Z,27.92
2022-08-25T22:24:41.813Z,26.88
2022-08-25T22:27:11.378Z,25.95
2022-08-25T22:29:43.786Z,23.70
2022-08-25T22:32:13.529Z,17.08
2022-08-25T22:34:41.545Z,24.42
2022-08-25T22:37:11.206Z,23.65
2022-08-25T22:39:40.302Z,25.55
2022-08-25T22:42:08.201Z,22.33
2022-08-25T22:44:38.783Z,20.13
2022-08-25T22:47:07.638Z,19.95
2022-08-25T22:49:35.605Z,19.13
2022-08-25T22:52:03.333Z,17.65
2022-08-25T22:54:30.820Z,15.18
2022-08-25T22:57:04.590Z,19.77
2022-08-25T22:59:34.009Z,22.65
2022-08-25T23:02:01.705Z,14.65
2022-08-25T23:04:29.846Z,17.10
2022-08-25T23:06:57.423Z,17.67
2022-08-25T23:09:25.009Z,15.80
2022-08-25T23:11:52.743Z,16.15
2022-08-25T23:14:20.952Z,14.75
2022-08-25T23:16:50.370Z,13.65
2022-08-25T23:19:18.671Z,16.23
2022-08-25T23:22:05.987Z,15.35
2022-08-25T23:24:33.505Z,19.48
2022-08-25T23:27:03.834Z,19.92
2022-08-25T23:29:34.378Z,18.02
2022-08-25T23:32:04.188Z,19.63
2022-08-25T23:34:31.747Z,18.38
2022-08-25T23:37:02.202Z,16.15
2022-08-25T23:39:29.975Z,16.85
2022-08-25T23:41:58.462Z,13.77
2022-08-25T23:44:27.389Z,14.73
2022-08-25T23:46:55.254Z,14.15
2022-08-25T23:49:25.483Z,13.60
2022-08-25T23:51:53.451Z,15.23
2022-08-25T23:54:21.668Z,12.35
2022-08-25T23:56:58.895Z,14.68
2022-08-25T23:59:26.332Z,12.48
